Time;durP1;ratioP1;P1;durP2;ratioP2;P2;SDS_P1;SDS_P2;PMS_P1;PMS_P2;Temp;Humidity;BMP_temperature;BMP_pressure;BME280_temperature;BME280_humidity;BME280_pressure;Samples;Min_cycle;Max_cycle;Signal;HPM_P1;HPM_P2
2021/06/02 00:02:46;;;;;;;22.90;8.63;;;;;;;12.44;62.60;99291.09;2167820;82;21034;-63
2021/06/02 00:05:47;;;;;;;30.55;11.75;;;;;;;12.45;62.68;99295.88;2167802;82;21006;-64
2021/06/02 00:08:48;;;;;;;32.30;11.20;;;;;;;12.44;62.63;99298.13;2167736;82;21070;-64
2021/06/02 00:11:48;;;;;;;26.05;10.40;;;;;;;12.43;62.64;99297.29;2168033;82;21037;-63
2021/06/02 00:14:48;;;;;;;27.42;9.75;;;;;;;12.42;62.58;99301.33;2167993;82;21014;-63
2021/06/02 00:17:49;;;;;;;27.00;10.08;;;;;;;12.38;62.85;99303.28;2168030;82;21544;-63
2021/06/02 00:20:49;;;;;;;28.52;10.32;;;;;;;12.34;62.90;99300.94;2167887;82;21513;-64
2021/06/02 00:23:50;;;;;;;27.13;9.73;;;;;;;12.32;62.85;99296.26;2167763;82;21045;-64
2021/06/02 00:26:50;;;;;;;29.70;10.48;;;;;;;12.33;62.79;99299.27;2167756;82;21117;-64
2021/06/02 00:29:50;;;;;;;29.10;10.03;;;;;;;12.34;63.00;99303.57;2167863;82;20994;-64
2021/06/02 00:32:51;;;;;;;28.07;10.50;;;;;;;12.35;63.07;99298.70;2167877;82;21030;-64
2021/06/02 00:35:52;;;;;;;27.15;11.05;;;;;;;12.37;62.86;99291.09;2167522;82;21065;-64
2021/06/02 00:38:52;;;;;;;29.32;10.50;;;;;;;12.36;62.70;99299.08;2167782;82;21576;-64
2021/06/02 00:41:53;;;;;;;30.37;12.30;;;;;;;12.33;62.76;99301.42;2167710;82;21537;-63
2021/06/02 00:44:53;;;;;;;36.90;13.38;;;;;;;12.30;62.82;99291.09;2167604;82;20979;-63
2021/06/02 00:47:54;;;;;;;33.95;12.47;;;;;;;12.26;62.98;99300.10;2167638;82;21018;-64
2021/06/02 00:50:54;;;;;;;33.67;12.98;;;;;;;12.21;62.99;99300.84;2167781;82;21034;-64
2021/06/02 00:53:55;;;;;;;34.03;13.30;;;;;;;12.15;62.91;99299.42;2167758;82;21022;-64
2021/06/02 00:56:56;;;;;;;32.73;13.90;;;;;;;12.11;62.87;99296.59;2167842;82;21026;-63
2021/06/02 00:59:57;;;;;;;33.65;12.73;;;;;;;12.03;63.16;99293.59;2167717;82;21050;-64
2021/06/02 01:02:57;;;;;;;30.88;12.73;;;;;;;11.94;63.15;99297.63;2167595;82;21058;-63
2021/06/02 01:05:57;;;;;;;33.45;12.20;;;;;;;11.89;63.37;99302.26;2167525;82;21093;-64
2021/06/02 01:08:58;;;;;;;29.12;10.48;;;;;;;11.83;63.50;99304.78;2167887;82;21106;-64
2021/06/02 01:11:58;;;;;;;25.72;9.85;;;;;;;11.77;63.48;99309.09;2167735;82;21030;-64
2021/06/02 01:14:59;;;;;;;28.23;10.95;;;;;;;11.66;63.88;99307.06;2167574;82;21073;-64
2021/06/02 01:18:00;;;;;;;28.10;9.53;;;;;;;11.61;63.83;99316.53;2167877;82;21058;-64
2021/06/02 01:21:00;;;;;;;26.30;9.85;;;;;;;11.51;63.88;99313.23;2167759;82;21525;-63
2021/06/02 01:24:01;;;;;;;27.95;11.25;;;;;;;11.39;64.44;99313.44;2167650;82;21042;-63
2021/06/02 01:27:02;;;;;;;27.58;10.13;;;;;;;11.27;64.15;99317.60;2167658;82;21014;-63
2021/06/02 01:30:02;;;;;;;30.08;11.15;;;;;;;11.17;64.23;99328.24;2167662;82;21094;-63
2021/06/02 01:33:03;;;;;;;26.77;10.58;;;;;;;11.03;64.32;99325.92;2167555;82;21062;-63
2021/06/02 01:36:04;;;;;;;26.02;10.48;;;;;;;10.91;64.45;99332.67;2169789;81;21077;-63
2021/06/02 01:39:04;;;;;;;26.65;10.23;;;;;;;10.81;64.79;99335.41;2170870;82;21687;-63
2021/06/02 01:42:05;;;;;;;27.75;10.60;;;;;;;10.65;64.79;99329.30;2171014;82;21026;-63
2021/06/02 01:45:05;;;;;;;26.65;9.53;;;;;;;10.58;64.94;99338.79;2171090;82;21101;-63
2021/06/02 01:48:06;;;;;;;27.27;10.38;;;;;;;10.51;65.28;99345.77;2171011;82;21014;-63
2021/06/02 01:51:07;;;;;;;29.37;10.18;;;;;;;10.47;65.43;99345.53;2171238;82;21018;-63
2021/06/02 01:54:07;;;;;;;28.30;10.13;;;;;;;10.38;65.26;99347.70;2171071;82;21552;-63
2021/06/02 01:57:07;;;;;;;28.32;9.75;;;;;;;10.35;65.43;99339.16;2170835;82;21045;-62
2021/06/02 02:00:09;;;;;;;26.17;10.03;;;;;;;10.30;65.50;99342.44;2171013;82;21604;-63
2021/06/02 02:03:10;;;;;;;24.47;9.48;;;;;;;10.24;65.38;99342.29;2170869;82;21038;-63
2021/06/02 02:06:10;;;;;;;24.98;9.48;;;;;;;10.21;65.64;99342.45;2170860;82;21057;-63
2021/06/02 02:09:11;;;;;;;24.10;9.53;;;;;;;10.14;65.40;99345.87;2171221;82;21054;-63
2021/06/02 02:12:12;;;;;;;24.35;9.15;;;;;;;10.10;65.48;99335.16;2171218;82;21553;-63
2021/06/02 02:15:12;;;;;;;24.72;9.05;;;;;;;10.04;65.45;99336.75;2170815;82;20998;-62
2021/06/02 02:18:12;;;;;;;26.57;9.25;;;;;;;10.00;65.27;99336.08;2170824;82;21061;-63
2021/06/02 02:21:13;;;;;;;23.57;8.55;;;;;;;9.94;65.48;99342.08;2171140;82;21010;-63
2021/06/02 02:24:14;;;;;;;23.73;9.40;;;;;;;9.75;65.44;99342.98;2170844;82;21168;-63
2021/06/02 02:27:14;;;;;;;25.30;9.48;;;;;;;9.45;65.50;99345.33;2171265;82;21022;-63
2021/06/02 02:30:14;;;;;;;27.10;9.38;;;;;;;9.22;66.70;99351.67;2170803;82;21687;-63
2021/06/02 02:33:15;;;;;;;23.00;9.00;;;;;;;9.01;67.30;99358.30;2170995;82;21663;-63
2021/06/02 02:36:15;;;;;;;31.57;10.60;;;;;;;8.82;67.50;99358.27;2170752;82;21070;-63
2021/06/02 02:39:16;;;;;;;24.67;9.73;;;;;;;8.70;67.63;99358.37;2170966;82;21103;-64
2021/06/02 02:42:17;;;;;;;27.07;10.43;;;;;;;8.58;68.80;99361.55;2171127;82;20979;-63
2021/06/02 02:45:17;;;;;;;25.17;8.40;;;;;;;8.55;68.57;99360.34;2171098;82;21030;-63
2021/06/02 02:48:19;;;;;;;28.92;9.98;;;;;;;8.57;68.18;99367.22;2171274;82;21102;-63
2021/06/02 02:51:20;;;;;;;25.48;9.65;;;;;;;8.56;68.63;99368.16;2171075;82;21500;-63
2021/06/02 02:54:20;;;;;;;25.70;9.95;;;;;;;8.51;68.53;99370.11;2171055;82;21017;-63
2021/06/02 02:57:20;;;;;;;25.62;9.80;;;;;;;8.55;68.47;99378.66;2171148;82;21107;-63
2021/06/02 03:00:21;;;;;;;24.80;10.32;;;;;;;8.45;68.43;99371.22;2171158;82;21042;-63
2021/06/02 03:03:22;;;;;;;27.30;10.20;;;;;;;8.36;68.71;99378.14;2171239;82;21070;-63
2021/06/02 03:06:23;;;;;;;27.48;9.98;;;;;;;8.31;68.65;99387.46;2171265;82;21632;-63
2021/06/02 03:09:24;;;;;;;33.08;15.03;;;;;;;8.26;69.44;99387.27;2171266;82;20998;-62
2021/06/02 03:12:25;;;;;;;26.23;10.15;;;;;;;8.18;69.37;99395.44;2170986;82;21062;-63
2021/06/02 03:15:25;;;;;;;25.00;9.40;;;;;;;8.20;69.50;99396.68;2171312;82;21568;-63
2021/06/02 03:18:27;;;;;;;29.02;12.25;;;;;;;8.25;69.58;99399.49;2171054;82;21030;-62
2021/06/02 03:21:28;;;;;;;25.93;10.33;;;;;;;8.43;69.65;99398.31;2171356;82;21088;-62
2021/06/02 03:24:28;;;;;;;26.93;9.83;;;;;;;8.59;69.99;99400.70;2171037;82;21093;-62
2021/06/02 03:27:28;;;;;;;26.02;9.48;;;;;;;8.58;69.88;99401.61;2171369;82;21058;-62
2021/06/02 03:30:29;;;;;;;24.57;9.03;;;;;;;8.65;69.40;99403.04;2171267;82;20963;-63
2021/06/02 03:33:30;;;;;;;26.40;8.88;;;;;;;8.78;69.55;99400.73;2171257;82;21525;-63
2021/06/02 03:36:30;;;;;;;22.95;8.30;;;;;;;8.99;69.25;99396.31;2170908;82;21568;-63
2021/06/02 03:39:31;;;;;;;24.30;9.25;;;;;;;9.21;68.75;99402.31;2171125;82;21062;-63
2021/06/02 03:42:32;;;;;;;28.02;10.32;;;;;;;9.34;68.52;99404.30;2171117;82;21061;-63
2021/06/02 03:45:33;;;;;;;24.40;9.00;;;;;;;9.39;68.39;99405.86;2171310;82;20998;-63
2021/06/02 03:48:33;;;;;;;22.40;9.13;;;;;;;9.44;68.51;99410.39;2171366;82;21030;-61
2021/06/02 03:51:34;;;;;;;24.55;10.38;;;;;;;9.43;68.66;99416.11;2171095;82;21624;-62
2021/06/02 03:54:34;;;;;;;28.73;15.30;;;;;;;9.48;68.96;99413.27;2170915;82;21022;-63
2021/06/02 03:57:35;;;;;;;27.93;14.05;;;;;;;9.61;68.68;99409.61;2170996;82;21002;-61
2021/06/02 04:00:35;;;;;;;26.17;9.60;;;;;;;9.91;68.81;99417.75;2171094;82;20995;-63
2021/06/02 04:03:36;;;;;;;23.12;9.30;;;;;;;10.27;68.17;99422.13;2171210;82;21010;-63
2021/06/02 04:06:36;;;;;;;23.75;10.80;;;;;;;10.61;67.72;99419.58;2171123;82;21081;-62
2021/06/02 04:09:36;;;;;;;26.00;10.70;;;;;;;10.90;67.37;99421.54;2171253;82;21010;-62
2021/06/02 04:12:37;;;;;;;25.60;11.10;;;;;;;11.10;67.08;99422.23;2171297;82;20990;-66
2021/06/02 04:15:37;;;;;;;24.47;10.13;;;;;;;11.32;66.64;99416.69;2171266;82;21592;-64
2021/06/02 04:18:38;;;;;;;25.35;10.45;;;;;;;11.63;66.28;99423.34;2170819;82;21069;-63
2021/06/02 04:21:40;;;;;;;53.58;19.27;;;;;;;11.85;65.87;99420.33;2171060;82;21098;-64
2021/06/02 04:24:40;;;;;;;28.40;10.60;;;;;;;12.02;65.93;99427.30;2171289;82;21026;-64
2021/06/02 04:27:41;;;;;;;32.60;12.70;;;;;;;12.30;65.74;99425.23;2171079;82;21058;-64
2021/06/02 04:30:42;;;;;;;29.18;12.58;;;;;;;12.59;65.25;99418.72;2170879;82;21038;-64
2021/06/02 04:33:42;;;;;;;27.75;10.68;;;;;;;12.80;64.94;99425.77;2170877;82;21042;-64
2021/06/02 04:36:43;;;;;;;25.82;9.78;;;;;;;13.06;64.75;99430.77;2170879;82;21082;-64
2021/06/02 04:39:43;;;;;;;102.65;36.77;;;;;;;13.45;64.60;99432.37;2171183;82;21066;-63
2021/06/02 04:42:44;;;;;;;29.52;10.50;;;;;;;13.76;64.05;99435.18;2171173;82;21026;-64
2021/06/02 04:45:44;;;;;;;26.82;9.93;;;;;;;14.10;63.88;99436.12;2171078;82;21125;-64
2021/06/02 04:48:45;;;;;;;22.37;8.08;;;;;;;14.40;62.40;99438.98;2171291;82;21541;-64
2021/06/02 04:54:47;;;;;;;;;;;;;;;14.96;60.69;99444.85;2146855;82;21045;-64
2021/06/02 04:57:48;;;;;;;21.42;7.30;;;;;;;15.21;59.98;99437.39;2171279;82;20479;-65
2021/06/02 05:00:48;;;;;;;24.35;9.13;;;;;;;15.48;59.21;99442.97;2171050;82;21014;-64
2021/06/02 05:03:49;;;;;;;22.13;7.22;;;;;;;15.73;58.70;99443.38;2170880;82;21001;-65
2021/06/02 05:06:49;;;;;;;20.55;6.97;;;;;;;15.97;57.63;99443.05;2171052;82;21042;-65
2021/06/02 05:09:51;;;;;;;21.30;6.65;;;;;;;16.19;57.97;99445.80;2171031;82;21030;-64
2021/06/02 05:12:51;;;;;;;21.17;6.80;;;;;;;16.45;57.33;99447.80;2170686;82;21101;-63
2021/06/02 05:15:52;;;;;;;20.72;6.35;;;;;;;16.68;57.48;99443.03;2169863;82;21105;-63
2021/06/02 05:18:53;;;;;;;20.08;6.42;;;;;;;16.95;56.85;99454.20;2169695;82;21585;-63
2021/06/02 05:24:55;;;;;;;;;;;;;;;17.51;55.78;99447.17;2146213;82;21018;-63
2021/06/02 05:27:56;;;;;;;19.30;6.30;;;;;;;17.72;55.29;99453.06;2170213;82;20279;-63
2021/06/02 05:30:57;;;;;;;20.32;6.15;;;;;;;17.91;53.66;99459.91;2171021;82;21046;-64
2021/06/02 05:33:57;;;;;;;18.20;5.50;;;;;;;18.05;54.21;99464.09;2171092;82;21014;-63
2021/06/02 05:36:57;;;;;;;18.17;5.67;;;;;;;18.27;52.96;99464.98;2171164;82;21153;-63
2021/06/02 05:39:58;;;;;;;20.00;6.12;;;;;;;18.39;51.89;99463.11;2171162;82;21073;-63
2021/06/02 05:42:58;;;;;;;18.02;5.47;;;;;;;18.51;52.08;99462.09;2171275;82;21512;-62
2021/06/02 05:45:59;;;;;;;21.55;5.60;;;;;;;18.74;51.60;99456.66;2170944;82;20990;-64
2021/06/02 05:49:01;;;;;;;16.82;4.95;;;;;;;18.92;50.72;99460.43;2170872;82;21045;-63
2021/06/02 05:52:01;;;;;;;15.60;5.25;;;;;;;19.36;50.35;99470.33;2171134;82;21034;-64
2021/06/02 05:55:02;;;;;;;18.30;5.28;;;;;;;19.36;50.35;99470.33;2170960;82;21010;-64
2021/06/02 05:58:03;;;;;;;16.87;5.20;;;;;;;19.61;50.15;99470.86;2170921;82;21181;-63
2021/06/02 06:01:03;;;;;;;16.30;4.50;;;;;;;19.82;48.98;99466.78;2170848;82;21021;-64
2021/06/02 06:04:04;;;;;;;18.17;4.50;;;;;;;20.00;48.50;99473.62;2170966;82;20994;-63
2021/06/02 06:07:04;;;;;;;15.80;4.55;;;;;;;20.15;47.55;99467.88;2170943;82;20994;-65
2021/06/02 06:10:04;;;;;;;16.25;4.72;;;;;;;20.33;48.21;99474.20;2171004;82;21102;-64
2021/06/02 06:13:05;;;;;;;12.85;4.70;;;;;;;20.56;47.48;99464.58;2171043;82;21010;-64
2021/06/02 06:16:06;;;;;;;12.03;4.03;;;;;;;20.73;46.58;99471.88;2170852;82;21572;-64
2021/06/02 06:19:06;;;;;;;15.72;3.95;;;;;;;20.84;44.99;99472.19;2170832;82;21037;-64
2021/06/02 06:22:07;;;;;;;14.58;4.10;;;;;;;20.83;44.07;99474.53;2170862;82;20990;-64
2021/06/02 06:25:08;;;;;;;11.75;3.60;;;;;;;21.01;45.50;99478.60;2170961;82;21021;-64
2021/06/02 06:28:08;;;;;;;10.97;3.60;;;;;;;21.06;43.17;99479.02;2171346;82;21136;-64
2021/06/02 06:31:09;;;;;;;13.57;3.83;;;;;;;21.16;41.57;99477.66;2171284;82;20986;-64
2021/06/02 06:34:09;;;;;;;9.73;3.57;;;;;;;;;;2171441;82;21640;-64
2021/06/02 06:37:09;;;;;;;16.40;4.20;;;;;;;21.59;41.02;99478.05;2120026;84;21026;-64
2021/06/02 06:40:10;;;;;;;13.43;3.52;;;;;;;21.82;42.02;99474.97;2174527;82;21054;-64
2021/06/02 06:43:10;;;;;;;11.30;3.00;;;;;;;21.96;40.75;99470.45;2174966;82;21081;-64
2021/06/02 06:46:11;;;;;;;15.20;3.63;;;;;;;21.88;37.11;99467.20;2174565;82;21022;-64
2021/06/02 06:49:11;;;;;;;14.97;3.40;;;;;;;21.94;39.73;99474.61;2174937;82;21037;-64
2021/06/02 06:52:12;;;;;;;9.97;3.33;;;;;;;22.22;39.77;99477.71;2174933;82;21508;-64
2021/06/02 06:55:13;;;;;;;6.60;2.80;;;;;;;22.46;37.93;99473.12;2174500;82;21639;-64
2021/06/02 06:58:13;;;;;;;6.40;2.37;;;;;;;22.53;37.12;99475.98;2174495;82;21015;-64
2021/06/02 07:01:14;;;;;;;8.93;2.90;;;;;;;22.71;37.18;99482.15;2174581;82;21410;-64
2021/06/02 07:04:14;;;;;;;11.93;3.40;;;;;;;22.70;34.19;99476.96;2174561;82;21010;-64
2021/06/02 07:07:15;;;;;;;6.37;2.63;;;;;;;22.56;36.14;99479.20;2174566;82;21014;-64
2021/06/02 07:10:15;;;;;;;11.03;3.10;;;;;;;22.76;36.26;99483.04;2174569;82;21030;-64
2021/06/02 07:13:17;;;;;;;6.80;2.57;;;;;;;23.06;35.02;99486.22;2174561;82;21092;-64
2021/06/02 07:16:17;;;;;;;13.38;3.15;;;;;;;23.40;32.12;99482.77;2174542;82;21048;-64
2021/06/02 07:19:18;;;;;;;8.10;2.87;;;;;;;23.28;33.95;99493.74;2174777;82;21690;-64
2021/06/02 07:22:20;;;;;;;15.70;3.60;;;;;;;23.11;34.45;99481.28;2174676;82;21521;-64
2021/06/02 07:25:20;;;;;;;11.97;3.20;;;;;;;23.43;34.19;99503.84;2174274;82;21074;-64
2021/06/02 07:28:21;;;;;;;12.07;3.20;;;;;;;23.56;32.86;99498.91;2174813;82;21046;-64
2021/06/02 07:31:21;;;;;;;9.33;2.93;;;;;;;23.74;32.99;99498.80;2174750;82;21065;-64
2021/06/02 07:34:22;;;;;;;8.80;2.97;;;;;;;23.85;31.58;99505.70;2174779;82;21001;-64
2021/06/02 07:37:22;;;;;;;9.90;3.67;;;;;;;23.93;32.63;99504.39;2171142;82;21521;-64
2021/06/02 07:40:23;;;;;;;12.10;3.20;;;;;;;24.29;33.10;99503.30;2168324;82;21034;-65
2021/06/02 07:43:23;;;;;;;14.87;3.10;;;;;;;24.37;30.11;99505.48;2168278;82;21485;-64
2021/06/02 07:46:24;;;;;;;11.93;2.98;;;;;;;24.01;30.04;99518.33;2167835;82;21097;-64
2021/06/02 07:49:25;;;;;;;8.53;2.80;;;;;;;23.85;31.01;99519.09;2167927;82;20994;-64
2021/06/02 07:52:25;;;;;;;10.30;3.10;;;;;;;23.74;29.52;99516.70;2167923;82;21062;-65
2021/06/02 07:55:26;;;;;;;8.10;2.67;;;;;;;23.46;30.51;99517.77;2168030;82;21042;-64
2021/06/02 07:58:26;;;;;;;12.33;3.70;;;;;;;23.46;29.40;99512.41;2167876;82;21101;-64
2021/06/02 08:01:27;;;;;;;9.43;2.77;;;;;;;23.59;31.12;99523.16;2168266;82;20963;-65
2021/06/02 08:04:29;;;;;;;9.68;2.75;;;;;;;23.54;29.25;99520.97;2167888;82;21038;-65
2021/06/02 08:07:29;;;;;;;12.28;3.42;;;;;;;23.24;30.10;99520.98;2167871;82;20994;-64
2021/06/02 08:10:30;;;;;;;14.50;2.93;;;;;;;23.12;30.89;99524.44;2168037;82;21027;-64
2021/06/02 08:13:30;;;;;;;7.37;3.03;;;;;;;23.55;30.34;99527.15;2167861;82;21097;-65
2021/06/02 08:16:31;;;;;;;8.73;2.65;;;;;;;23.68;28.27;99529.73;2167940;82;20997;-65
2021/06/02 08:19:31;;;;;;;10.33;3.03;;;;;;;23.81;28.29;99531.95;2168008;82;21026;-65
2021/06/02 08:22:32;;;;;;;9.27;2.80;;;;;;;23.97;29.35;99537.06;2168027;82;20982;-65
2021/06/02 08:25:33;;;;;;;12.10;2.93;;;;;;;23.90;29.64;99539.55;2167967;82;21060;-65
2021/06/02 08:28:33;;;;;;;9.83;3.00;;;;;;;24.17;29.29;99534.43;2168040;82;21022;-65
2021/06/02 08:31:34;;;;;;;8.03;2.90;;;;;;;24.76;28.18;99522.78;2168289;82;21026;-65
2021/06/02 08:34:36;;;;;;;9.43;2.63;;;;;;;25.00;28.37;99519.24;2168003;82;21516;-65
2021/06/02 08:37:36;;;;;;;9.28;2.70;;;;;;;24.49;27.92;99518.05;2167674;82;21643;-65
2021/06/02 08:40:36;;;;;;;13.27;2.70;;;;;;;24.09;28.10;99534.92;2168036;82;21034;-65
2021/06/02 08:43:37;;;;;;;9.70;2.67;;;;;;;24.46;28.35;99533.13;2167891;82;21069;-65
2021/06/02 08:46:37;;;;;;;11.37;2.93;;;;;;;24.81;28.26;99529.84;2168035;82;21018;-66
2021/06/02 08:49:38;;;;;;;10.23;2.80;;;;;;;24.79;27.69;99531.83;2167942;82;21114;-65
2021/06/02 08:52:38;;;;;;;11.67;2.80;;;;;;;24.63;28.29;99529.16;2167962;82;21122;-65
2021/06/02 08:55:42;;;;;;;9.27;2.90;;;;;;;24.66;27.43;99528.83;2168012;82;21509;-65
2021/06/02 08:58:41;;;;;;;10.38;3.08;;;;;;;24.71;27.80;99536.70;2149354;82;21050;-64
2021/06/02 09:01:42;;;;;;;10.30;2.93;;;;;;;24.55;27.76;99529.95;2167996;82;21564;-65
2021/06/02 09:05:16;;;;;;;15.58;3.08;;;;;;;25.07;28.77;99532.83;2238544;79;22258;-66
2021/06/02 09:08:16;;;;;;;11.22;3.05;;;;;;;25.62;27.45;99533.88;2188966;80;21000;-66
2021/06/02 09:11:18;;;;;;;10.77;2.90;;;;;;;25.28;26.63;99520.70;2189072;81;21012;-65
2021/06/02 09:14:18;;;;;;;10.70;3.10;;;;;;;24.73;28.01;99520.45;2189511;81;20988;-65
2021/06/02 09:17:19;;;;;;;9.30;3.20;;;;;;;24.54;28.10;99530.47;2189512;81;20937;-65
2021/06/02 09:20:19;;;;;;;16.13;3.83;;;;;;;24.21;28.19;99532.28;2189652;81;21012;-66
2021/06/02 09:23:20;;;;;;;15.53;3.47;;;;;;;23.97;29.24;99535.73;2189474;81;21056;-66
2021/06/02 09:26:20;;;;;;;8.03;2.93;;;;;;;23.82;29.01;99532.30;2189482;81;21518;-65
2021/06/02 09:29:21;;;;;;;14.07;3.67;;;;;;;23.89;29.70;99525.81;2189401;81;20996;-65
2021/06/02 09:32:21;;;;;;;9.53;3.10;;;;;;;24.25;29.59;99524.73;2189308;81;20969;-66
2021/06/02 09:35:21;;;;;;;12.80;3.23;;;;;;;24.28;29.39;99523.91;2189362;81;20949;-66
2021/06/02 09:38:22;;;;;;;15.00;4.07;;;;;;;24.36;29.68;99519.88;2189515;81;21056;-66
2021/06/02 09:41:22;;;;;;;10.10;3.10;;;;;;;24.02;29.50;99520.84;2189471;81;20961;-65
2021/06/02 09:44:23;;;;;;;10.97;3.30;;;;;;;23.92;29.21;99508.09;2189419;81;21000;-66
2021/06/02 09:47:23;;;;;;;15.83;4.00;;;;;;;23.64;29.27;99510.14;2189163;81;20997;-66
2021/06/02 09:50:24;;;;;;;9.70;3.07;;;;;;;23.42;29.49;99515.06;2189444;81;20988;-66
2021/06/02 09:53:24;;;;;;;13.67;3.40;;;;;;;23.08;28.81;99513.67;2189412;81;20976;-65
2021/06/02 09:56:24;;;;;;;13.97;3.03;;;;;;;22.42;30.14;99518.52;2189425;81;21527;-65
2021/06/02 09:59:25;;;;;;;11.10;3.13;;;;;;;21.73;29.79;99512.25;2189425;81;20953;-65
2021/06/02 10:02:25;;;;;;;15.43;3.87;;;;;;;21.15;30.03;99509.78;2189352;81;20997;-66
2021/06/02 10:05:26;;;;;;;14.47;3.23;;;;;;;20.88;31.66;99513.58;2189225;81;21032;-67
2021/06/02 10:08:27;;;;;;;11.77;3.20;;;;;;;20.68;31.82;99512.77;2189680;81;21052;-67
2021/06/02 10:11:30;;;;;;;9.13;2.90;;;;;;;20.59;31.71;99513.59;2189797;81;21019;-66
2021/06/02 10:14:29;;;;;;;12.03;2.90;;;;;;;20.68;31.92;99512.77;2128021;83;21528;-66
2021/06/02 10:17:30;;;;;;;10.13;3.10;;;;;;;20.77;32.42;99511.06;2144145;83;20992;-66
2021/06/02 10:20:30;;;;;;;9.45;2.90;;;;;;;20.66;31.89;99509.85;2144287;83;20987;-67
2021/06/02 10:23:31;;;;;;;15.40;3.40;;;;;;;20.61;31.90;99516.94;2144204;83;20987;-66
2021/06/02 10:26:32;;;;;;;11.30;3.13;;;;;;;20.51;31.89;99508.12;2144234;83;20976;-67
2021/06/02 10:29:33;;;;;;;15.20;3.40;;;;;;;20.51;32.34;99514.78;2144051;83;21074;-66
2021/06/02 10:32:33;;;;;;;9.43;2.70;;;;;;;20.47;32.45;99512.87;2144087;83;20956;-67
2021/06/02 10:35:34;;;;;;;17.87;3.80;;;;;;;20.59;32.29;99511.76;2144094;83;20944;-66
2021/06/02 10:38:34;;;;;;;14.28;3.20;;;;;;;20.76;32.01;99508.07;2144132;83;21043;-66
2021/06/02 10:41:34;;;;;;;12.07;2.60;;;;;;;21.29;32.03;99507.98;2144202;83;20995;-66
2021/06/02 10:44:35;;;;;;;8.55;2.90;;;;;;;21.54;31.33;99503.02;2144011;83;20975;-65
2021/06/02 10:47:35;;;;;;;9.30;3.00;;;;;;;21.58;30.61;99509.75;2144218;83;21036;-65
2021/06/02 10:50:36;;;;;;;7.08;2.72;;;;;;;21.40;30.40;99508.30;2144117;83;21036;-66
2021/06/02 10:53:36;;;;;;;10.80;3.00;;;;;;;21.30;30.61;99508.34;2144183;83;21012;-65
2021/06/02 10:56:37;;;;;;;7.90;2.70;;;;;;;21.71;31.13;99507.56;2143842;83;21015;-65
2021/06/02 10:59:37;;;;;;;11.00;2.97;;;;;;;22.60;30.03;99507.31;2144176;83;21538;-65
2021/06/02 11:02:38;;;;;;;13.87;3.03;;;;;;;23.21;29.39;99500.73;2144076;83;21506;-66
2021/06/02 11:05:39;;;;;;;13.98;2.95;;;;;;;23.49;29.51;99493.34;2127936;83;21523;-66
2021/06/02 11:08:40;;;;;;;6.83;2.83;;;;;;;24.34;28.46;99495.61;2127820;84;21019;-65
2021/06/02 11:11:40;;;;;;;8.47;2.57;;;;;;;25.24;27.76;99483.47;2127945;84;20987;-66
2021/06/02 11:14:40;;;;;;;9.23;2.60;;;;;;;25.96;27.54;99481.66;2128123;84;21015;-66
2021/06/02 11:17:41;;;;;;;9.60;3.30;;;;;;;26.61;24.58;99481.70;2127808;84;21003;-65
2021/06/02 11:20:41;;;;;;;13.33;3.20;;;;;;;27.02;26.36;99489.08;2127920;84;20945;-66
2021/06/02 11:23:42;;;;;;;12.53;3.07;;;;;;;26.77;22.00;99479.39;2127499;84;21016;-66
2021/06/02 11:26:43;;;;;;;13.53;2.70;;;;;;;26.37;25.80;99487.28;2127873;84;20976;-66
2021/06/02 11:29:43;;;;;;;8.17;2.60;;;;;;;26.80;24.84;99484.92;2127914;84;21475;-66
2021/06/02 11:32:43;;;;;;;8.80;2.90;;;;;;;27.28;25.07;99489.47;2127925;84;21024;-67
2021/06/02 11:35:44;;;;;;;10.23;2.83;;;;;;;27.85;24.89;99489.78;2127605;84;21040;-66
2021/06/02 11:38:45;;;;;;;9.20;2.83;;;;;;;28.41;25.21;99493.19;2127938;84;20960;-67
2021/06/02 11:41:45;;;;;;;9.33;2.87;;;;;;;28.13;23.88;99488.58;2127910;84;21037;-67
2021/06/02 11:44:46;;;;;;;9.63;2.87;;;;;;;27.18;23.89;99479.47;2127962;84;21032;-67
2021/06/02 11:47:47;;;;;;;6.20;2.47;;;;;;;26.67;23.92;99490.89;2127416;84;20975;-66
2021/06/02 11:50:48;;;;;;;12.65;2.90;;;;;;;25.35;22.68;99494.34;2127405;84;21542;-67
2021/06/02 11:53:49;;;;;;;12.77;2.90;;;;;;;24.18;25.06;99499.94;2127737;84;20991;-66
2021/06/02 11:56:49;;;;;;;14.10;3.13;;;;;;;23.65;25.05;99503.80;2127586;84;21036;-66
2021/06/02 11:59:50;;;;;;;7.37;3.20;;;;;;;23.46;25.89;99499.03;2127807;84;20972;-67
2021/06/02 12:02:50;;;;;;;12.00;3.20;;;;;;;24.50;26.23;99494.27;2127987;84;21051;-67
2021/06/02 12:05:53;;;;;;;9.33;3.07;;;;;;;25.49;25.54;99483.40;2136864;83;21111;-67
2021/06/02 12:08:53;;;;;;;9.33;2.67;;;;;;;25.72;25.07;99486.66;2165305;82;21016;-67
2021/06/02 12:11:53;;;;;;;5.23;2.57;;;;;;;24.79;24.66;99493.45;2182367;81;21032;-67
2021/06/02 12:14:54;;;;;;;8.60;2.77;;;;;;;23.94;25.86;99500.72;2182210;81;20969;-67
2021/06/02 12:17:54;;;;;;;13.33;2.90;;;;;;;23.73;26.45;99501.12;2182319;81;21001;-67
2021/06/02 12:20:55;;;;;;;12.70;3.07;;;;;;;23.96;26.84;99502.72;2182239;81;21032;-67
2021/06/02 12:23:55;;;;;;;8.63;2.93;;;;;;;24.84;26.55;99497.30;2182204;82;21073;-68
2021/06/02 12:26:56;;;;;;;10.20;3.37;;;;;;;25.71;26.49;99484.98;2182456;81;20969;-67
2021/06/02 12:29:57;;;;;;;8.28;2.77;;;;;;;26.56;24.81;99481.39;2181921;82;21011;-67
2021/06/02 12:32:58;;;;;;;9.35;2.77;;;;;;;26.95;24.02;99487.62;2182081;82;21550;-67
2021/06/02 12:35:59;;;;;;;9.77;2.77;;;;;;;27.27;23.47;99495.05;2182240;82;21465;-66
2021/06/02 12:38:59;;;;;;;9.23;2.60;;;;;;;26.63;23.71;99503.03;2181723;82;21054;-67
2021/06/02 12:42:00;;;;;;;6.43;2.50;;;;;;;26.39;23.93;99490.62;2182172;81;20973;-66
2021/06/02 12:45:00;;;;;;;13.33;2.90;;;;;;;26.59;24.18;99499.02;2182094;82;21001;-66
2021/06/02 12:48:01;;;;;;;5.17;2.50;;;;;;;27.10;25.53;99496.55;2181835;81;21079;-66
2021/06/02 12:51:01;;;;;;;8.33;2.40;;;;;;;27.49;23.81;99495.98;2182303;81;21020;-66
2021/06/02 12:54:02;;;;;;;8.03;2.80;;;;;;;27.02;23.95;99481.00;2182113;81;21472;-66
2021/06/02 12:57:02;;;;;;;10.53;2.60;;;;;;;27.11;23.45;99482.09;2182256;82;21492;-66
2021/06/02 13:00:03;;;;;;;10.17;2.60;;;;;;;27.38;24.35;99485.67;2182123;82;21568;-66
2021/06/02 13:03:03;;;;;;;10.70;3.27;;;;;;;27.81;23.83;99478.56;2182022;82;20957;-66
2021/06/02 13:06:03;;;;;;;9.00;2.70;;;;;;;28.08;21.21;99478.04;2172442;82;20977;-66
2021/06/02 13:09:04;;;;;;;9.07;2.60;;;;;;;27.95;23.79;99484.09;2172499;81;20958;-66
2021/06/02 13:12:04;;;;;;;9.83;2.50;;;;;;;28.07;23.26;99479.88;2172366;81;20945;-67
2021/06/02 13:15:05;;;;;;;7.50;2.70;;;;;;;28.51;22.51;99478.85;2171738;82;21005;-67
2021/06/02 13:18:06;;;;;;;8.17;2.50;;;;;;;28.54;21.14;99483.03;2172232;81;21049;-67
2021/06/02 13:21:06;;;;;;;8.55;2.40;;;;;;;27.28;21.14;99482.73;2172077;81;21035;-67
2021/06/02 13:24:07;;;;;;;7.63;2.40;;;;;;;26.35;23.44;99489.30;2172305;81;21027;-67
2021/06/02 13:27:08;;;;;;;10.50;2.62;;;;;;;25.88;23.80;99490.59;2172365;81;20990;-66
2021/06/02 13:30:08;;;;;;;10.20;2.50;;;;;;;26.14;24.55;99490.80;2172497;81;20970;-66
2021/06/02 13:33:09;;;;;;;8.38;2.75;;;;;;;26.16;24.87;99489.27;2172168;81;21157;-67
2021/06/02 13:36:10;;;;;;;14.87;4.77;;;;;;;26.84;24.69;99488.92;2172356;81;21460;-66
2021/06/02 13:39:10;;;;;;;13.33;2.70;;;;;;;26.59;22.54;99491.81;2172188;82;21060;-67
2021/06/02 13:42:11;;;;;;;8.07;2.50;;;;;;;26.19;23.74;99488.91;2171924;81;21076;-67
2021/06/02 13:45:11;;;;;;;7.67;2.67;;;;;;;26.23;23.82;99487.55;2172220;82;20970;-67
2021/06/02 13:48:12;;;;;;;7.63;2.60;;;;;;;26.57;23.79;99491.14;2172612;81;20969;-67
2021/06/02 13:51:12;;;;;;;9.63;2.57;;;;;;;27.09;23.55;99492.19;2172307;81;21068;-67
2021/06/02 13:54:13;;;;;;;12.50;3.30;;;;;;;26.46;22.55;99495.59;2172589;82;21016;-67
2021/06/02 13:57:15;;;;;;;11.28;2.77;;;;;;;26.09;23.60;99492.69;2171813;82;21654;-66
2021/06/02 14:00:15;;;;;;;7.07;2.30;;;;;;;26.10;24.77;99503.77;2172416;81;21039;-66
2021/06/02 14:03:16;;;;;;;11.53;2.53;;;;;;;26.17;23.27;99494.47;2172460;81;21040;-67
2021/06/02 14:06:17;;;;;;;6.83;2.77;;;;;;;26.59;23.10;99491.81;2187281;81;21043;-67
2021/06/02 14:12:20;;;;;;;13.35;2.80;;;;;;;24.89;23.76;99498.13;2173904;81;21028;-67